TAF LFBI
LFBI 261700Z 2618/2718 24010KT 9999 BKN030 TEMPO 2618/2621 3000 RA BKN007 BKN015TCU PROB40 TEMPO 2618/2621 24015G25KT BECMG 2621/2623 30010KT PROB40 TEMPO 2701/2703 4000 SHRA BKN020TCU PROB30 TEMPO 2701/2707 BKN010 TEMPO 2712/2718 30015G25KT 3000 SHRA BKN025TCU=
METAR LFBI
LFBI 270900Z AUTO 26012KT 9999 BKN018/// OVC100/// ///TCU 03/// Q0995 TEMPO 30015G25KT 3000 SHRA=
LFBI 270830Z AUTO 24011KT CAVOK 02/// Q0995 TEMPO 30015G25KT 3000 SHRA BKN025TCU=
LFBI 270800Z AUTO 25009KT CAVOK 02/// Q0995 TEMPO 30015G25KT 3000 SHRA BKN025TCU=
LFBI 270730Z AUTO 24008KT CAVOK 01/// Q0995 TEMPO 30015G25KT 3000 SHRA BKN025TCU=
LFBI 270700Z AUTO 25008KT CAVOK 01/// Q0995 TEMPO BKN008=
WC LFBI
WS LFBI
WV LFBI